Time;durP1;ratioP1;P1;durP2;ratioP2;P2;SDS_P1;SDS_P2;PMS_P1;PMS_P2;Temp;Humidity;BMP_temperature;BMP_pressure;BME280_temperature;BME280_humidity;BME280_pressure;Samples;Min_cycle;Max_cycle;Signal;HPM_P1;HPM_P2
2023/03/07 00:00:55;;;;;;;9.73;7.30;;;;;;;2.17;94.00;98627.38;4972051;28;20255;-71
2023/03/07 00:03:21;;;;;;;7.70;7.00;;;;;;;2.16;94.05;98619.59;4971673;28;20281;-71
2023/03/07 00:05:46;;;;;;;0.33;0.33;;;;;;;2.11;94.41;98612.41;4971925;28;20194;-71
2023/03/07 00:08:11;;;;;;;5.70;5.20;;;;;;;2.14;94.34;98613.69;4971920;28;20206;-70
2023/03/07 00:10:37;;;;;;;5.97;5.37;;;;;;;2.15;94.50;98612.59;4971868;28;20193;-71
2023/03/07 00:13:03;;;;;;;0.20;0.13;;;;;;;2.08;94.41;98592.28;4971895;28;20252;-70
2023/03/07 00:15:29;;;;;;;4.13;3.17;;;;;;;2.09;94.95;98588.47;4971857;28;20178;-71
2023/03/07 00:17:55;;;;;;;2.90;2.70;;;;;;;2.10;95.14;98583.88;4971659;28;20174;-71
2023/03/07 00:20:20;;;;;;;2.63;2.43;;;;;;;2.05;95.53;98575.91;4970602;28;20181;-71
2023/03/07 00:22:45;;;;;;;0.47;0.47;;;;;;;2.04;96.09;98574.31;4971988;28;20174;-71
2023/03/07 00:25:12;;;;;;;0.93;0.93;;;;;;;2.06;96.69;98562.16;4972137;28;20174;-72
2023/03/07 00:27:37;;;;;;;1.20;1.20;;;;;;;2.12;96.61;98554.75;4971719;28;20173;-72
2023/03/07 00:30:04;;;;;;;4.40;3.73;;;;;;;2.09;97.23;98556.16;4971767;28;20621;-71
2023/03/07 00:32:30;;;;;;;10.90;7.80;;;;;;;2.14;97.35;98547.16;4971720;28;20261;-70
2023/03/07 00:34:57;;;;;;;6.40;4.87;;;;;;;2.15;97.14;98545.25;4971799;28;20221;-71
2023/03/07 00:37:22;;;;;;;1.27;1.20;;;;;;;2.10;97.83;98535.41;4971603;28;20823;-71
2023/03/07 00:39:48;;;;;;;0.80;0.80;;;;;;;2.13;98.09;98528.59;4971707;28;20257;-71
2023/03/07 00:42:14;;;;;;;0.70;0.70;;;;;;;2.13;98.31;98517.84;4971736;28;20685;-71
2023/03/07 00:44:39;;;;;;;3.53;3.23;;;;;;;2.20;98.59;98513.63;4971623;28;20182;-71
2023/03/07 00:47:05;;;;;;;4.93;4.43;;;;;;;2.22;98.61;98506.03;4971368;28;20178;-70
2023/03/07 00:49:30;;;;;;;1.53;1.53;;;;;;;2.26;98.27;98507.03;4970606;28;20324;-72
2023/03/07 00:51:56;;;;;;;13.43;12.07;;;;;;;2.26;98.80;98503.53;4971450;28;20189;-73
2023/03/07 00:54:21;;;;;;;6.67;4.17;;;;;;;2.29;98.57;98487.56;4971400;28;20216;-71
2023/03/07 00:56:46;;;;;;;12.63;8.97;;;;;;;2.22;99.21;98484.50;4971519;28;20186;-71
2023/03/07 00:59:12;;;;;;;3.00;2.00;;;;;;;2.18;99.75;98470.06;4970764;28;20184;-72
2023/03/07 01:01:37;;;;;;;0.40;0.40;;;;;;;2.13;100.00;98472.84;4971438;28;20220;-72
2023/03/07 01:04:03;;;;;;;3.50;3.20;;;;;;;2.11;100.00;98461.59;4971397;28;20304;-70
2023/03/07 01:06:31;;;;;;;8.20;7.23;;;;;;;2.12;100.00;98465.88;4969952;28;20206;-72
2023/03/07 01:09:03;;;;;;;10.83;5.83;;;;;;;2.13;100.00;98474.75;4970093;28;20209;-71
2023/03/07 01:11:30;;;;;;;7.67;6.90;;;;;;;2.12;100.00;98452.41;4970114;28;20182;-71
2023/03/07 01:13:57;;;;;;;8.33;5.87;;;;;;;2.11;100.00;98458.88;4971341;28;20202;-70
2023/03/07 01:16:24;;;;;;;6.97;6.37;;;;;;;2.13;100.00;98455.88;4974366;28;20320;-71
2023/03/07 01:18:53;;;;;;;9.57;8.70;;;;;;;2.16;100.00;98449.88;4974847;28;20186;-71
2023/03/07 01:21:31;;;;;;;11.80;10.30;;;;;;;2.16;100.00;98437.22;4974751;28;20178;-71
2023/03/07 01:23:56;;;;;;;14.77;13.20;;;;;;;2.13;100.00;98423.56;4973349;28;20411;-71
2023/03/07 01:26:27;;;;;;;18.13;13.67;;;;;;;2.13;100.00;98423.56;4974581;28;20170;-72
2023/03/07 01:28:55;;;;;;;3.83;3.53;;;;;;;2.11;100.00;98426.56;4973415;28;20220;-71
2023/03/07 01:31:21;;;;;;;4.50;3.87;;;;;;;2.12;100.00;98414.69;4974596;28;20181;-71
2023/03/07 01:33:48;;;;;;;10.43;8.60;;;;;;;2.12;100.00;98420.06;4974425;28;20206;-71
2023/03/07 01:36:24;;;;;;;14.27;10.93;;;;;;;2.07;100.00;98399.47;4973250;28;20205;-77
2023/03/07 01:38:53;;;;;;;12.83;10.43;;;;;;;2.08;100.00;98394.88;4974766;28;20174;-71
2023/03/07 01:41:18;;;;;;;14.63;8.67;;;;;;;2.06;100.00;98405.94;4973005;28;20606;-71
2023/03/07 01:43:44;;;;;;;8.77;6.67;;;;;;;2.00;100.00;98387.50;4974296;28;20185;-72
2023/03/07 01:46:18;;;;;;;4.90;4.40;;;;;;;1.97;100.00;98383.53;4974262;28;20209;-72
2023/03/07 01:48:45;;;;;;;6.10;5.50;;;;;;;1.96;100.00;98373.06;4972864;28;20184;-71
2023/03/07 01:51:10;;;;;;;5.53;3.73;;;;;;;1.93;100.00;98371.00;4974289;28;20193;-70
2023/03/07 01:53:36;;;;;;;6.33;3.30;;;;;;;1.94;100.00;98365.31;4974145;28;20202;-71
2023/03/07 01:56:02;;;;;;;4.03;3.37;;;;;;;1.89;100.00;98351.19;4974478;28;20206;-72
2023/03/07 01:58:28;;;;;;;8.03;7.20;;;;;;;1.89;100.00;98353.88;4973969;28;20224;-71
2023/03/07 02:00:54;;;;;;;10.83;9.73;;;;;;;1.88;100.00;98355.75;4974095;28;20189;-71
2023/03/07 02:03:34;;;;;;;9.10;8.10;;;;;;;1.89;100.00;98359.25;4973937;28;20182;-71
2023/03/07 02:06:04;;;;;;;9.90;8.90;;;;;;;1.90;100.00;98352.75;4972817;28;20177;-70
2023/03/07 02:08:31;;;;;;;7.70;6.90;;;;;;;1.91;100.00;98355.16;4973755;28;20177;-74
2023/03/07 02:10:56;;;;;;;9.67;6.57;;;;;;;1.92;100.00;98354.03;4973988;28;20177;-73
2023/03/07 02:13:21;;;;;;;12.53;11.23;;;;;;;1.92;100.00;98358.63;4973836;28;20198;-72
2023/03/07 02:15:49;;;;;;;8.60;7.63;;;;;;;1.91;100.00;98354.34;4974084;28;20608;-71
2023/03/07 02:18:18;;;;;;;8.90;6.40;;;;;;;1.91;100.00;98348.97;4973575;28;20704;-72
2023/03/07 02:20:51;;;;;;;10.03;8.83;;;;;;;1.87;100.00;98343.38;4972672;28;20190;-70
2023/03/07 02:23:19;;;;;;;8.40;7.60;;;;;;;1.85;100.00;98339.41;4973750;28;20175;-71
2023/03/07 02:26:03;;;;;;;12.07;10.83;;;;;;;1.79;100.00;98344.13;4973378;28;20208;-71
2023/03/07 02:28:28;;;;;;;6.53;5.80;;;;;;;1.76;100.00;98331.28;4973126;28;20166;-71
2023/03/07 02:30:56;;;;;;;11.40;9.03;;;;;;;1.72;100.00;98333.78;4973512;28;20174;-73
2023/03/07 02:33:23;;;;;;;6.40;5.80;;;;;;;1.72;100.00;98324.91;4973378;28;20665;-72
2023/03/07 02:35:53;;;;;;;8.30;6.77;;;;;;;1.67;100.00;98325.81;4972161;28;20654;-71
2023/03/07 02:38:20;;;;;;;8.53;7.60;;;;;;;1.64;100.00;98318.38;4973294;28;20189;-71
2023/03/07 02:40:45;;;;;;;10.17;8.90;;;;;;;1.66;100.00;98324.22;4972143;28;20716;-71
2023/03/07 02:43:11;;;;;;;8.10;6.63;;;;;;;1.69;100.00;98329.00;4973298;28;20178;-70
2023/03/07 02:45:36;;;;;;;5.77;5.00;;;;;;;1.70;100.00;98327.91;4973319;28;20173;-71
2023/03/07 02:48:01;;;;;;;13.17;4.87;;;;;;;1.67;100.00;98331.19;4973017;28;20265;-70
2023/03/07 02:50:27;;;;;;;8.90;7.30;;;;;;;1.62;100.00;98333.22;4973156;28;20186;-72
2023/03/07 02:52:52;;;;;;;6.23;4.97;;;;;;;1.63;100.00;98327.53;4973126;28;20280;-71
2023/03/07 02:55:17;;;;;;;8.57;7.70;;;;;;;1.62;100.00;98322.47;4973083;28;20261;-73
2023/03/07 02:57:43;;;;;;;6.23;5.10;;;;;;;1.64;100.00;98326.44;4972914;28;20182;-70
2023/03/07 03:00:10;;;;;;;2.33;2.13;;;;;;;1.69;100.00;98334.38;4972990;28;20184;-71
2023/03/07 03:02:35;;;;;;;11.70;6.23;;;;;;;1.71;100.00;98331.38;4972942;28;20171;-70
2023/03/07 03:05:00;;;;;;;5.77;5.13;;;;;;;1.72;100.00;98320.31;4973124;28;20213;-71
2023/03/07 03:07:26;;;;;;;11.13;8.73;;;;;;;1.73;100.00;98323.78;4972793;28;20650;-71
2023/03/07 03:09:51;;;;;;;7.43;5.23;;;;;;;1.75;100.00;98321.63;4972846;28;20273;-74
2023/03/07 03:12:16;;;;;;;6.90;6.23;;;;;;;1.74;100.00;98311.97;4972605;28;20193;-71
2023/03/07 03:14:42;;;;;;;2.70;2.50;;;;;;;1.74;100.00;98306.56;4972660;28;20761;-72
2023/03/07 03:17:07;;;;;;;7.80;7.10;;;;;;;1.74;100.00;98301.19;4972842;28;20252;-79
2023/03/07 03:19:32;;;;;;;9.17;8.27;;;;;;;1.77;100.00;98308.66;4972745;28;20301;-78
2023/03/07 03:21:59;;;;;;;5.90;5.30;;;;;;;1.79;100.00;98309.13;4972588;28;20541;-79
2023/03/07 03:24:24;;;;;;;3.17;2.83;;;;;;;1.81;100.00;98303.44;4972597;28;20645;-75
2023/03/07 03:26:49;;;;;;;5.00;4.07;;;;;;;1.81;100.00;98301.53;4972524;28;20178;-74
2023/03/07 03:29:15;;;;;;;5.43;4.87;;;;;;;1.83;100.00;98298.53;4972763;28;20185;-73
2023/03/07 03:31:40;;;;;;;4.67;3.10;;;;;;;1.85;100.00;98293.63;4972213;28;20173;-77
2023/03/07 03:34:05;;;;;;;6.10;5.50;;;;;;;1.90;100.00;98296.22;4972272;28;20205;-79
2023/03/07 03:36:31;;;;;;;4.97;3.73;;;;;;;1.93;100.00;98296.41;4972197;28;20573;-78
2023/03/07 03:38:58;;;;;;;4.13;3.80;;;;;;;1.95;100.00;98299.56;4971904;28;20261;-77
2023/03/07 03:41:24;;;;;;;6.93;6.23;;;;;;;1.99;100.00;98300.53;4972272;28;20174;-79
2023/03/07 03:43:50;;;;;;;13.30;5.40;;;;;;;2.01;100.00;98305.63;4970904;28;20193;-79
2023/03/07 03:46:18;;;;;;;5.27;4.47;;;;;;;2.02;100.00;98301.81;4970788;28;20189;-76
2023/03/07 03:48:43;;;;;;;4.40;3.70;;;;;;;2.04;100.00;98284.28;4972105;28;20237;-78
2023/03/07 03:51:11;;;;;;;5.67;5.07;;;;;;;2.05;100.00;98288.56;4972192;28;20228;-80
2023/03/07 03:53:38;;;;;;;4.57;4.13;;;;;;;2.08;100.00;98300.59;4972415;28;20216;-78
2023/03/07 03:56:06;;;;;;;6.13;3.30;;;;;;;2.11;100.00;98294.59;4972023;28;20185;-76
2023/03/07 03:58:32;;;;;;;5.07;4.67;;;;;;;2.13;100.00;98289.69;4971954;28;20206;-75
2023/03/07 04:01:10;;;;;;;5.67;3.37;;;;;;;2.16;100.00;98282.88;4971925;28;20190;-79
2023/03/07 04:03:38;;;;;;;5.57;5.07;;;;;;;2.19;100.00;98284.97;4972358;28;20208;-79
2023/03/07 04:06:09;;;;;;;3.93;3.43;;;;;;;2.22;100.00;98287.84;4971974;28;20648;-77
2023/03/07 04:08:37;;;;;;;4.03;3.63;;;;;;;2.24;100.00;98296.41;4971709;28;20259;-79
2023/03/07 04:11:03;;;;;;;3.27;2.97;;;;;;;2.27;100.00;98281.53;4971924;28;20174;-80
2023/03/07 04:13:30;;;;;;;4.60;4.20;;;;;;;2.28;100.00;98278.50;4970681;28;20220;-80
2023/03/07 04:15:55;;;;;;;3.87;3.53;;;;;;;2.32;100.00;98287.59;4971796;28;20309;-79
2023/03/07 04:18:21;;;;;;;6.13;5.20;;;;;;;2.36;100.00;98276.97;4971876;28;20256;-76
2023/03/07 04:20:48;;;;;;;4.30;3.90;;;;;;;2.36;100.00;98285.84;4971769;28;20313;-78
2023/03/07 04:23:14;;;;;;;4.40;3.97;;;;;;;2.37;100.00;98278.56;4971864;28;20182;-80
2023/03/07 04:25:39;;;;;;;9.07;4.23;;;;;;;2.38;100.00;98270.16;4971759;28;20189;-74
2023/03/07 04:28:05;;;;;;;4.30;4.00;;;;;;;2.39;100.00;98276.34;4971678;28;20204;-79
2023/03/07 04:30:30;;;;;;;2.87;2.67;;;;;;;2.42;100.00;98273.03;4971739;28;20654;-79
2023/03/07 04:32:55;;;;;;;3.57;3.30;;;;;;;2.45;100.00;98263.53;4971572;28;20362;-80
2023/03/07 04:35:21;;;;;;;3.13;2.83;;;;;;;2.47;100.00;98258.66;4971798;28;20182;-78
2023/03/07 04:37:46;;;;;;;5.60;5.10;;;;;;;2.48;100.00;98269.09;4970310;28;20224;-78
2023/03/07 04:40:11;;;;;;;5.33;3.77;;;;;;;2.51;100.00;98262.28;4971544;28;20174;-79
2023/03/07 04:42:37;;;;;;;4.50;3.17;;;;;;;2.55;100.00;98244.38;4971604;28;20662;-76
2023/03/07 04:45:03;;;;;;;9.13;3.67;;;;;;;2.57;100.00;98244.88;4971622;28;20630;-80
2023/03/07 04:47:28;;;;;;;4.90;2.80;;;;;;;2.61;100.00;98240.47;4970248;28;20544;-80
2023/03/07 04:49:53;;;;;;;5.00;4.50;;;;;;;2.63;100.00;98236.34;4972193;28;20249;-79
2023/03/07 04:52:19;;;;;;;5.43;4.80;;;;;;;2.67;100.00;98231.09;4975288;28;20580;-77
2023/03/07 04:54:44;;;;;;;2.40;2.20;;;;;;;2.70;100.00;98235.84;4975145;28;20201;-79
2023/03/07 04:57:09;;;;;;;7.63;6.83;;;;;;;2.73;100.00;98232.53;4975077;28;20759;-79
2023/03/07 04:59:37;;;;;;;8.53;3.97;;;;;;;2.78;100.00;98228.91;4975118;28;20178;-79
2023/03/07 05:02:07;;;;;;;3.70;3.37;;;;;;;2.79;100.00;98225.09;4975089;28;20205;-75
2023/03/07 05:04:32;;;;;;;3.63;3.33;;;;;;;2.83;100.00;98221.47;4975135;28;20170;-75
2023/03/07 05:06:58;;;;;;;5.67;5.20;;;;;;;2.84;100.00;98217.66;4975005;28;20712;-77
2023/03/07 05:09:23;;;;;;;5.17;4.67;;;;;;;2.84;100.00;98217.66;4974766;28;20194;-77
2023/03/07 05:11:49;;;;;;;5.47;4.80;;;;;;;2.83;100.00;98226.06;4974777;28;20190;-73
2023/03/07 05:14:14;;;;;;;3.73;3.47;;;;;;;2.83;100.00;98216.06;4974960;28;20259;-80
2023/03/07 05:16:40;;;;;;;7.00;6.40;;;;;;;2.84;100.00;98217.66;4974726;28;20182;-77
2023/03/07 05:19:05;;;;;;;6.40;5.77;;;;;;;2.87;100.00;98213.53;4974729;28;20189;-77
2023/03/07 05:21:31;;;;;;;5.70;5.20;;;;;;;2.89;100.00;98214.00;4974848;28;20202;-80
2023/03/07 05:23:56;;;;;;;2.80;2.60;;;;;;;2.90;100.00;98212.91;4974637;28;20185;-75
2023/03/07 05:26:21;;;;;;;5.33;4.87;;;;;;;2.91;100.00;98223.38;4974582;28;20189;-80
2023/03/07 05:28:46;;;;;;;4.77;4.33;;;;;;;2.92;100.00;98206.09;4974524;28;20639;-77
2023/03/07 05:31:12;;;;;;;6.07;5.67;;;;;;;2.92;100.00;98219.56;4974639;28;20266;-77
2023/03/07 05:33:41;;;;;;;6.80;6.20;;;;;;;2.94;100.00;98224.66;4974379;28;20214;-79
2023/03/07 05:36:07;;;;;;;5.60;5.10;;;;;;;2.95;100.00;98227.03;4974541;28;20181;-73
2023/03/07 05:38:33;;;;;;;6.50;5.90;;;;;;;2.95;100.00;98221.63;4974364;28;20181;-76
2023/03/07 05:40:58;;;;;;;4.13;3.73;;;;;;;2.96;100.00;98223.22;4974365;28;20535;-76
2023/03/07 05:43:24;;;;;;;3.77;3.47;;;;;;;2.94;100.00;98222.75;4974408;28;20196;-79
2023/03/07 05:45:49;;;;;;;5.33;4.83;;;;;;;2.93;100.00;98231.16;4974374;28;20190;-77
2023/03/07 05:48:14;;;;;;;6.27;5.67;;;;;;;2.91;100.00;98249.56;4974298;28;20182;-78
2023/03/07 05:50:40;;;;;;;1.83;1.73;;;;;;;2.89;100.00;98249.88;4974213;28;20182;-79
2023/03/07 05:53:06;;;;;;;0.83;0.83;;;;;;;2.89;100.00;98254.44;4974132;28;20277;-79
2023/03/07 05:55:31;;;;;;;3.90;3.60;;;;;;;2.73;100.00;98258.69;4974051;28;20266;-78
2023/03/07 05:57:56;;;;;;;2.90;2.70;;;;;;;2.55;100.00;98253.25;4973961;28;20174;-78
2023/03/07 06:00:22;;;;;;;1.27;1.20;;;;;;;2.41;100.00;98265.25;4973945;28;20180;-76
2023/03/07 06:02:47;;;;;;;4.97;4.30;;;;;;;2.25;100.00;98271.06;4973977;28;20182;-76
2023/03/07 06:05:13;;;;;;;2.80;2.60;;;;;;;2.04;100.00;98256.56;4973924;28;20282;-75
2023/03/07 06:07:38;;;;;;;3.27;3.00;;;;;;;1.92;100.00;98259.00;4973867;28;20181;-75
2023/03/07 06:10:04;;;;;;;2.10;2.00;;;;;;;1.79;100.00;98261.47;4973652;28;20609;-77
2023/03/07 06:12:29;;;;;;;2.57;2.30;;;;;;;1.73;100.00;98267.28;4973847;28;20228;-74
2023/03/07 06:14:55;;;;;;;2.30;2.10;;;;;;;1.66;100.00;98259.66;4973831;28;20300;-73
2023/03/07 06:17:20;;;;;;;3.13;2.83;;;;;;;1.63;100.00;98264.84;4973697;28;20182;-75
2023/03/07 06:19:45;;;;;;;2.87;1.23;;;;;;;1.62;100.00;98255.97;4973545;28;20178;-77
2023/03/07 06:22:10;;;;;;;1.83;1.73;;;;;;;1.61;100.00;98273.22;4973614;28;20385;-77
2023/03/07 06:24:36;;;;;;;2.47;1.60;;;;;;;1.58;100.00;98268.44;4973645;28;20182;-76
2023/03/07 06:27:01;;;;;;;2.33;2.13;;;;;;;1.54;100.00;98264.78;4973352;28;20182;-78
2023/03/07 06:29:26;;;;;;;1.87;1.77;;;;;;;1.51;100.00;98272.66;4973605;28;20181;-76
2023/03/07 06:31:52;;;;;;;2.40;1.97;;;;;;;1.49;100.00;98276.47;4973230;28;20174;-75
2023/03/07 06:34:17;;;;;;;2.43;2.23;;;;;;;1.51;100.00;98270.78;4973306;28;20255;-77
2023/03/07 06:36:42;;;;;;;2.30;2.10;;;;;;;1.51;100.00;98276.16;4972017;28;20182;-76
2023/03/07 06:39:08;;;;;;;1.77;1.67;;;;;;;1.54;100.00;98269.38;4973383;28;20178;-76
2023/03/07 06:41:33;;;;;;;1.77;1.67;;;;;;;1.58;100.00;98278.41;4973254;28;20261;-74
2023/03/07 06:43:58;;;;;;;3.43;2.40;;;;;;;1.60;100.00;98284.31;4973314;28;20563;-74
2023/03/07 06:46:24;;;;;;;3.20;2.10;;;;;;;1.62;100.00;98277.50;4973046;28;20174;-76
2023/03/07 06:48:50;;;;;;;3.47;2.73;;;;;;;1.65;100.00;98284.97;4973149;28;20186;-77
2023/03/07 06:51:16;;;;;;;2.67;2.43;;;;;;;1.68;100.00;98278.97;4973011;28;20170;-77
2023/03/07 06:53:42;;;;;;;1.10;1.00;;;;;;;1.72;100.00;98279.94;4973060;28;20293;-74
2023/03/07 06:56:07;;;;;;;2.80;2.57;;;;;;;1.73;100.00;98292.28;4973002;28;20261;-76
2023/03/07 06:58:33;;;;;;;1.57;1.47;;;;;;;1.75;100.00;98286.63;4973285;28;20626;-78
2023/03/07 07:00:58;;;;;;;2.20;1.80;;;;;;;1.74;100.00;98288.53;4972852;28;20269;-77
2023/03/07 07:03:23;;;;;;;1.90;1.30;;;;;;;1.72;100.00;98288.00;4972935;28;20182;-77
2023/03/07 07:05:49;;;;;;;2.77;2.37;;;;;;;1.69;100.00;98288.63;4972880;28;20240;-76
2023/03/07 07:08:14;;;;;;;1.40;1.30;;;;;;;1.67;100.00;98290.03;4972646;28;20178;-76
2023/03/07 07:10:39;;;;;;;2.57;1.47;;;;;;;1.71;100.00;98291.81;4972983;28;20193;-76
2023/03/07 07:13:05;;;;;;;1.60;1.50;;;;;;;1.70;100.00;98286.72;4971970;28;20220;-75
2023/03/07 07:15:31;;;;;;;1.57;0.80;;;;;;;1.71;100.00;98281.03;4972685;28;20190;-75
2023/03/07 07:17:56;;;;;;;8.50;6.17;;;;;;;1.67;100.00;98290.84;4972720;28;20195;-75
2023/03/07 07:20:21;;;;;;;6.60;2.13;;;;;;;1.61;100.00;98288.59;4972650;28;20237;-75
2023/03/07 07:22:47;;;;;;;1.90;1.67;;;;;;;1.61;100.00;98283.19;4972503;28;20173;-76
2023/03/07 07:25:12;;;;;;;2.10;1.43;;;;;;;1.61;100.00;98285.88;4972400;28;20202;-76
2023/03/07 07:27:37;;;;;;;0.93;0.80;;;;;;;1.57;100.00;98288.38;4972401;28;20213;-76
2023/03/07 07:30:04;;;;;;;2.63;1.77;;;;;;;1.57;100.00;98283.00;4972437;28;20190;-77
2023/03/07 07:32:29;;;;;;;1.90;1.80;;;;;;;1.56;100.00;98284.09;4972379;28;20209;-75
2023/03/07 07:34:54;;;;;;;2.10;1.77;;;;;;;1.59;100.00;98288.06;4972261;28;20688;-76
2023/03/07 07:37:20;;;;;;;2.83;1.77;;;;;;;1.56;100.00;98283.31;4967507;28;20273;-76
2023/03/07 07:39:45;;;;;;;7.40;1.30;;;;;;;1.56;100.00;98272.53;4952942;28;20234;-76
2023/03/07 07:42:11;;;;;;;1.07;1.03;;;;;;;1.58;100.00;98281.88;4953052;28;20214;-70
2023/03/07 07:44:36;;;;;;;5.60;1.20;;;;;;;1.62;100.00;98279.41;4961696;28;20201;-76
2023/03/07 07:47:02;;;;;;;0.73;0.73;;;;;;;1.59;100.00;98274.63;4961673;28;20182;-74
2023/03/07 07:49:27;;;;;;;2.17;1.70;;;;;;;1.58;100.00;98279.19;4953018;28;20210;-77
2023/03/07 07:51:52;;;;;;;0.97;0.93;;;;;;;1.59;100.00;98278.13;4952991;28;20213;-77
2023/03/07 07:54:18;;;;;;;1.67;1.57;;;;;;;1.56;100.00;98278.72;4951601;28;20202;-75
2023/03/07 07:56:43;;;;;;;1.50;0.60;;;;;;;1.49;100.00;98278.34;4952585;28;20229;-77
2023/03/07 07:59:08;;;;;;;1.90;1.73;;;;;;;1.46;100.00;98289.75;4952750;28;20183;-75
2023/03/07 08:01:34;;;;;;;5.97;2.37;;;;;;;1.41;100.00;98285.25;4952397;28;20185;-78
2023/03/07 08:03:59;;;;;;;2.37;2.13;;;;;;;1.40;100.00;98274.78;4960633;28;20220;-76
2023/03/07 08:06:26;;;;;;;0.97;0.97;;;;;;;1.42;100.00;98286.84;4968023;28;20555;-75
2023/03/07 08:08:53;;;;;;;13.23;1.40;;;;;;;1.42;100.00;98280.66;4971820;28;20186;-78
2023/03/07 08:11:19;;;;;;;0.80;0.80;;;;;;;1.44;100.00;98283.84;4972056;28;20173;-76
2023/03/07 08:13:44;;;;;;;0.03;0.03;;;;;;;1.46;100.00;98274.38;4972018;28;20208;-71
2023/03/07 08:16:22;;;;;;;0.47;0.43;;;;;;;1.48;100.00;98274.88;4972580;28;20268;-73
2023/03/07 08:18:52;;;;;;;0.50;0.43;;;;;;;1.52;100.00;98283.13;4975405;28;20170;-71
2023/03/07 08:21:18;;;;;;;0.43;0.43;;;;;;;1.52;100.00;98282.31;4972638;28;20174;-71
2023/03/07 08:23:44;;;;;;;2.50;1.30;;;;;;;1.53;100.00;98276.63;4972671;28;20174;-71
2023/03/07 08:26:12;;;;;;;0.40;0.40;;;;;;;1.47;100.00;98294.00;4976020;28;20182;-71
2023/03/07 08:28:37;;;;;;;1.53;1.43;;;;;;;1.42;100.00;98286.03;4975876;28;20178;-71
2023/03/07 08:31:22;;;;;;;0.80;0.80;;;;;;;1.28;100.00;98269.16;4974426;28;20211;-71
2023/03/07 08:33:48;;;;;;;1.60;1.23;;;;;;;1.11;100.00;98292.09;4975646;28;20200;-71
2023/03/07 08:36:13;;;;;;;2.93;2.67;;;;;;;0.99;100.00;98286.44;4975535;28;20178;-72
2023/03/07 08:38:38;;;;;;;2.80;2.20;;;;;;;0.94;100.00;98289.25;4971138;28;20257;-70
2023/03/07 08:41:06;;;;;;;2.70;2.07;;;;;;;0.95;100.00;98285.47;4956201;28;20530;-71
2023/03/07 08:43:35;;;;;;;0.47;0.47;;;;;;;0.98;100.00;98284.06;4966094;28;20182;-71
2023/03/07 08:46:00;;;;;;;2.30;2.10;;;;;;;0.94;100.00;98297.31;4975410;28;20641;-71
2023/03/07 08:48:26;;;;;;;1.17;1.13;;;;;;;0.86;100.00;98288.06;4975409;28;20178;-71
2023/03/07 08:50:52;;;;;;;2.20;1.40;;;;;;;0.86;100.00;98293.44;4975384;28;20686;-71
2023/03/07 08:53:18;;;;;;;0.60;0.53;;;;;;;0.87;100.00;98294.25;4975568;28;20201;-71
2023/03/07 08:55:43;;;;;;;0.73;0.73;;;;;;;0.80;100.00;98291.16;4975469;28;20627;-71
2023/03/07 08:58:09;;;;;;;1.00;0.93;;;;;;;0.75;100.00;98293.97;4975111;28;20201;-72
2023/03/07 09:00:36;;;;;;;1.23;0.93;;;;;;;0.72;100.00;98289.97;4973838;28;20200;-71
2023/03/07 09:03:01;;;;;;;0.90;0.90;;;;;;;0.68;100.00;98290.88;4975132;28;20178;-72
2023/03/07 09:05:28;;;;;;;0.53;0.33;;;;;;;0.57;100.00;98299.13;4974957;28;20680;-71
2023/03/07 09:07:53;;;;;;;3.20;0.23;;;;;;;0.54;100.00;98302.41;4975109;28;20208;-70
2023/03/07 09:10:20;;;;;;;6.07;0.20;;;;;;;0.50;100.00;98300.63;4975004;28;20269;-72
2023/03/07 09:12:46;;;;;;;1.33;1.23;;;;;;;0.40;100.00;98306.19;4974822;28;20182;-72
2023/03/07 09:15:12;;;;;;;0.70;0.63;;;;;;;0.40;100.00;98304.28;4975176;28;20209;-71
2023/03/07 09:17:37;;;;;;;0.87;0.87;;;;;;;0.41;100.00;98292.47;4974663;28;20193;-71
2023/03/07 09:20:04;;;;;;;2.30;1.60;;;;;;;0.42;100.00;98294.03;4974478;28;20277;-71
2023/03/07 09:22:30;;;;;;;1.63;1.53;;;;;;;0.49;100.00;98293.66;4965682;28;20193;-70
2023/03/07 09:24:55;;;;;;;0.83;0.83;;;;;;;0.53;100.00;98290.06;4955439;28;20183;-69
2023/03/07 09:27:20;;;;;;;8.37;1.13;;;;;;;0.62;100.00;98294.75;4955225;28;20622;-71
2023/03/07 09:29:46;;;;;;;2.00;0.60;;;;;;;0.71;100.00;98293.75;4955216;28;20190;-71
2023/03/07 09:32:11;;;;;;;0.67;0.67;;;;;;;0.78;100.00;98293.38;4955242;28;20210;-70
2023/03/07 09:34:36;;;;;;;2.90;1.17;;;;;;;0.80;100.00;98281.22;4955126;28;20214;-70
2023/03/07 09:37:02;;;;;;;2.33;1.23;;;;;;;0.83;100.00;98285.19;4954309;28;20225;-71
2023/03/07 09:39:27;;;;;;;1.03;0.93;;;;;;;0.83;100.00;98285.19;4953981;29;20183;-70
2023/03/07 09:41:59;;;;;;;0.97;0.93;;;;;;;0.87;100.00;98288.88;4955122;28;20591;-70
2023/03/07 09:44:43;;;;;;;3.83;1.20;;;;;;;0.81;100.00;98293.56;4963543;28;20241;-72
2023/03/07 09:47:20;;;;;;;0.90;0.90;;;;;;;0.83;100.00;98287.88;4973053;28;20604;-71
2023/03/07 09:49:48;;;;;;;0.83;0.73;;;;;;;0.82;100.00;98286.28;4974213;28;20178;-73
2023/03/07 09:52:17;;;;;;;0.80;0.80;;;;;;;0.85;100.00;98285.69;4973972;28;20194;-70
2023/03/07 09:54:51;;;;;;;2.20;1.77;;;;;;;0.86;100.00;98288.06;4972662;28;20504;-70
2023/03/07 09:57:23;;;;;;;1.40;1.30;;;;;;;0.86;100.00;98287.25;4972687;28;20633;-69
2023/03/07 09:59:54;;;;;;;1.37;1.27;;;;;;;0.78;100.00;98291.47;4964749;28;20190;-70
2023/03/07 10:02:39;;;;;;;0.47;0.40;;;;;;;0.72;100.00;98294.53;4954630;28;20313;-71
2023/03/07 10:05:07;;;;;;;3.50;0.63;;;;;;;0.64;100.00;98289.88;4954487;28;20194;-72
2023/03/07 10:07:34;;;;;;;0.87;0.70;;;;;;;0.57;100.00;98290.28;4953158;28;20183;-70
2023/03/07 10:10:03;;;;;;;0.93;0.63;;;;;;;0.52;100.00;98285.81;4953164;28;20683;-70
2023/03/07 10:13:07;;;;;;;0.60;0.60;;;;;;;0.46;100.00;98294.28;4954540;28;20709;-71
2023/03/07 10:15:47;;;;;;;2.37;2.17;;;;;;;0.41;100.00;98291.66;4951382;29;20437;-70
2023/03/07 10:18:43;;;;;;;1.27;0.63;;;;;;;0.39;100.00;98285.78;4954279;28;20657;-70
2023/03/07 10:21:33;;;;;;;1.63;1.43;;;;;;;0.32;100.00;98291.56;4954185;28;20635;-71
2023/03/07 10:24:22;;;;;;;0.63;0.63;;;;;;;0.37;100.00;98306.78;4954499;28;20186;-72
2023/03/07 10:27:00;;;;;;;1.10;0.63;;;;;;;0.35;100.00;98298.22;4954327;28;20419;-71
2023/03/07 10:29:33;;;;;;;0.73;0.73;;;;;;;0.31;100.00;98295.34;4962924;28;20770;-71
2023/03/07 10:32:18;;;;;;;3.63;1.33;;;;;;;0.22;100.00;98289.06;4954116;28;20187;-72
2023/03/07 10:34:44;;;;;;;0.83;0.70;;;;;;;0.16;100.00;98295.63;4952691;28;20469;-71
2023/03/07 10:37:18;;;;;;;0.87;0.83;;;;;;;0.14;100.00;98303.97;4954035;28;20425;-71
2023/03/07 10:39:48;;;;;;;0.93;0.83;;;;;;;0.10;100.00;98294.13;4953998;28;20414;-71
2023/03/07 10:42:16;;;;;;;1.27;1.17;;;;;;;0.07;100.00;98290.13;4953948;28;20306;-72
2023/03/07 10:44:44;;;;;;;3.63;1.03;;;;;;;0.07;100.00;98297.41;4953824;28;20201;-73
2023/03/07 10:47:17;;;;;;;0.57;0.57;;;;;;;0.04;100.00;98293.41;4953154;28;20434;-72
2023/03/07 10:49:44;;;;;;;0.77;0.67;;;;;;;0.05;100.00;98292.31;4961018;28;20457;-71
2023/03/07 10:52:37;;;;;;;2.30;0.97;;;;;;;0.05;100.00;98291.53;4957934;28;20190;-70
2023/03/07 10:55:40;;;;;;;1.77;0.83;;;;;;;0.06;100.00;98296.59;4972900;28;20535;-72
2023/03/07 10:58:27;;;;;;;0.53;0.53;;;;;;;0.08;100.00;98294.41;4972799;28;20778;-73
2023/03/07 11:01:06;;;;;;;1.40;1.30;;;;;;;0.09;100.00;98293.31;4972915;28;21025;-72
2023/03/07 11:03:35;;;;;;;2.50;0.90;;;;;;;0.09;100.00;98287.16;4972857;28;20897;-71
2023/03/07 11:06:00;;;;;;;1.10;1.10;;;;;;;0.09;100.00;98289.84;4972536;28;20904;-71
2023/03/07 11:08:46;;;;;;;1.63;1.50;;;;;;;0.07;100.00;98294.72;5087545;27;20543;-71
2023/03/07 11:11:23;;;;;;;1.90;1.80;;;;;;;0.07;100.00;98281.28;5088141;28;20424;-71
2023/03/07 11:14:08;;;;;;;2.33;1.70;;;;;;;0.08;100.00;98285.56;5087998;28;20185;-71
2023/03/07 11:16:40;;;;;;;3.00;2.60;;;;;;;0.11;100.00;98274.22;5088113;28;20900;-71
2023/03/07 11:19:26;;;;;;;0.80;0.80;;;;;;;0.15;100.00;98283.31;5087922;28;20409;-71
2023/03/07 11:21:56;;;;;;;1.10;1.10;;;;;;;0.17;100.00;98287.28;5088030;28;20173;-72
2023/03/07 11:24:27;;;;;;;6.70;2.80;;;;;;;0.18;100.00;98280.03;5087818;28;20849;-72
2023/03/07 11:26:58;;;;;;;3.80;2.40;;;;;;;0.22;100.00;98278.31;5087540;28;20452;-70
2023/03/07 11:29:24;;;;;;;3.40;2.63;;;;;;;0.26;100.00;98284.69;5087817;28;20404;-71
2023/03/07 11:32:08;;;;;;;1.23;1.13;;;;;;;0.26;100.00;98280.09;5086505;28;20420;-71
2023/03/07 11:34:46;;;;;;;0.50;0.50;;;;;;;0.27;100.00;98273.66;5087736;28;20533;-71
2023/03/07 11:37:20;;;;;;;0.53;0.50;;;;;;;0.35;100.00;98282.91;5087232;28;20926;-72